sensor_id;sensor_type;location;lat;lon;timestamp;P1;durP1;ratioP1;P2;durP2;ratioP2
69170;SDS011;56279;47.902;12.308;2023-03-20T00:00:40;8.95;;;3.80;;
69170;SDS011;56279;47.902;12.308;2023-03-20T00:02:43;6.40;;;3.63;;
69170;SDS011;56279;47.902;12.308;2023-03-20T00:04:46;6.47;;;3.47;;
69170;SDS011;56279;47.902;12.308;2023-03-20T00:06:47;8.00;;;4.23;;
69170;SDS011;56279;47.902;12.308;2023-03-20T00:08:49;6.13;;;3.53;;
69170;SDS011;56279;47.902;12.308;2023-03-20T00:10:52;7.10;;;4.30;;
69170;SDS011;56279;47.902;12.308;2023-03-20T00:12:54;9.63;;;3.72;;
69170;SDS011;56279;47.902;12.308;2023-03-20T00:14:58;7.68;;;3.47;;
69170;SDS011;56279;47.902;12.308;2023-03-20T00:17:04;7.37;;;3.57;;
69170;SDS011;56279;47.902;12.308;2023-03-20T00:19:20;6.10;;;3.30;;
69170;SDS011;56279;47.902;12.308;2023-03-20T00:21:23;6.03;;;3.40;;
69170;SDS011;56279;47.902;12.308;2023-03-20T00:23:25;7.97;;;3.85;;
69170;SDS011;56279;47.902;12.308;2023-03-20T00:25:27;6.95;;;3.83;;
69170;SDS011;56279;47.902;12.308;2023-03-20T00:27:28;5.97;;;3.70;;
69170;SDS011;56279;47.902;12.308;2023-03-20T00:29:29;7.43;;;3.65;;
69170;SDS011;56279;47.902;12.308;2023-03-20T00:31:36;6.90;;;3.97;;
69170;SDS011;56279;47.902;12.308;2023-03-20T00:33:39;7.55;;;4.00;;
69170;SDS011;56279;47.902;12.308;2023-03-20T00:35:40;5.93;;;3.67;;
69170;SDS011;56279;47.902;12.308;2023-03-20T00:37:41;6.97;;;3.40;;
69170;SDS011;56279;47.902;12.308;2023-03-20T00:39:42;7.22;;;3.63;;
69170;SDS011;56279;47.902;12.308;2023-03-20T00:41:48;5.47;;;3.13;;
69170;SDS011;56279;47.902;12.308;2023-03-20T00:44:35;6.70;;;3.30;;
69170;SDS011;56279;47.902;12.308;2023-03-20T00:46:36;6.50;;;4.30;;
69170;SDS011;56279;47.902;12.308;2023-03-20T00:48:40;6.87;;;3.97;;
69170;SDS011;56279;47.902;12.308;2023-03-20T00:50:44;5.93;;;3.55;;
69170;SDS011;56279;47.902;12.308;2023-03-20T00:52:45;6.93;;;3.35;;
69170;SDS011;56279;47.902;12.308;2023-03-20T00:54:47;7.57;;;3.60;;
69170;SDS011;56279;47.902;12.308;2023-03-20T00:56:53;6.70;;;3.60;;
69170;SDS011;56279;47.902;12.308;2023-03-20T00:59:08;6.33;;;3.40;;
69170;SDS011;56279;47.902;12.308;2023-03-20T01:01:17;5.72;;;3.55;;
69170;SDS011;56279;47.902;12.308;2023-03-20T01:03:19;7.38;;;3.53;;
69170;SDS011;56279;47.902;12.308;2023-03-20T01:05:22;6.50;;;3.60;;
69170;SDS011;56279;47.902;12.308;2023-03-20T01:07:28;6.95;;;3.13;;
69170;SDS011;56279;47.902;12.308;2023-03-20T01:09:29;5.87;;;3.40;;
69170;SDS011;56279;47.902;12.308;2023-03-20T01:11:30;4.72;;;3.40;;
69170;SDS011;56279;47.902;12.308;2023-03-20T01:13:32;5.55;;;3.65;;
69170;SDS011;56279;47.902;12.308;2023-03-20T01:15:33;6.53;;;3.22;;
69170;SDS011;56279;47.902;12.308;2023-03-20T01:17:36;6.38;;;3.38;;
69170;SDS011;56279;47.902;12.308;2023-03-20T01:19:37;6.10;;;3.50;;
69170;SDS011;56279;47.902;12.308;2023-03-20T01:21:39;5.70;;;2.85;;
69170;SDS011;56279;47.902;12.308;2023-03-20T01:23:41;8.00;;;3.40;;
69170;SDS011;56279;47.902;12.308;2023-03-20T01:25:49;6.55;;;3.78;;
69170;SDS011;56279;47.902;12.308;2023-03-20T01:27:51;5.97;;;2.78;;
69170;SDS011;56279;47.902;12.308;2023-03-20T01:29:53;7.23;;;3.40;;
69170;SDS011;56279;47.902;12.308;2023-03-20T01:31:55;5.85;;;3.17;;
69170;SDS011;56279;47.902;12.308;2023-03-20T01:34:01;6.55;;;3.95;;
69170;SDS011;56279;47.902;12.308;2023-03-20T01:36:03;6.00;;;3.53;;
69170;SDS011;56279;47.902;12.308;2023-03-20T01:38:11;6.07;;;3.50;;
69170;SDS011;56279;47.902;12.308;2023-03-20T01:40:30;6.33;;;3.33;;
69170;SDS011;56279;47.902;12.308;2023-03-20T01:42:36;6.85;;;3.35;;
69170;SDS011;56279;47.902;12.308;2023-03-20T01:44:38;6.93;;;3.58;;
69170;SDS011;56279;47.902;12.308;2023-03-20T01:46:39;6.15;;;3.40;;
69170;SDS011;56279;47.902;12.308;2023-03-20T01:51:06;5.50;;;3.20;;
69170;SDS011;56279;47.902;12.308;2023-03-20T01:53:25;7.35;;;3.65;;
69170;SDS011;56279;47.902;12.308;2023-03-20T01:55:33;7.68;;;3.63;;
69170;SDS011;56279;47.902;12.308;2023-03-20T01:57:36;6.00;;;3.53;;
69170;SDS011;56279;47.902;12.308;2023-03-20T01:59:49;8.00;;;3.70;;
69170;SDS011;56279;47.902;12.308;2023-03-20T02:01:53;6.10;;;3.37;;
69170;SDS011;56279;47.902;12.308;2023-03-20T02:03:57;5.68;;;3.50;;
69170;SDS011;56279;47.902;12.308;2023-03-20T02:06:21;7.10;;;3.30;;
69170;SDS011;56279;47.902;12.308;2023-03-20T02:08:41;5.13;;;3.15;;
69170;SDS011;56279;47.902;12.308;2023-03-20T02:10:48;7.22;;;3.65;;
69170;SDS011;56279;47.902;12.308;2023-03-20T02:12:55;6.57;;;3.38;;
69170;SDS011;56279;47.902;12.308;2023-03-20T02:15:06;5.57;;;3.05;;
69170;SDS011;56279;47.902;12.308;2023-03-20T02:17:36;5.65;;;3.20;;
69170;SDS011;56279;47.902;12.308;2023-03-20T02:32:37;5.53;;;3.25;;
69170;SDS011;56279;47.902;12.308;2023-03-20T02:34:53;5.15;;;2.95;;
69170;SDS011;56279;47.902;12.308;2023-03-20T02:39:29;5.35;;;2.90;;
69170;SDS011;56279;47.902;12.308;2023-03-20T02:41:42;7.07;;;3.50;;
69170;SDS011;56279;47.902;12.308;2023-03-20T02:46:12;5.97;;;3.35;;
69170;SDS011;56279;47.902;12.308;2023-03-20T02:48:31;6.17;;;3.13;;
69170;SDS011;56279;47.902;12.308;2023-03-20T02:50:37;6.75;;;3.05;;
69170;SDS011;56279;47.902;12.308;2023-03-20T02:52:59;5.10;;;2.75;;
69170;SDS011;56279;47.902;12.308;2023-03-20T03:01:50;5.50;;;2.80;;
69170;SDS011;56279;47.902;12.308;2023-03-20T03:04:32;4.80;;;2.53;;
69170;SDS011;56279;47.902;12.308;2023-03-20T03:06:30;4.78;;;2.55;;
69170;SDS011;56279;47.902;12.308;2023-03-20T03:08:34;4.28;;;2.40;;
69170;SDS011;56279;47.902;12.308;2023-03-20T03:10:43;5.63;;;2.43;;
69170;SDS011;56279;47.902;12.308;2023-03-20T03:12:50;4.07;;;2.20;;
69170;SDS011;56279;47.902;12.308;2023-03-20T03:14:53;4.75;;;2.50;;
69170;SDS011;56279;47.902;12.308;2023-03-20T03:17:00;4.68;;;2.33;;
69170;SDS011;56279;47.902;12.308;2023-03-20T03:19:12;4.68;;;2.72;;
69170;SDS011;56279;47.902;12.308;2023-03-20T03:21:19;4.87;;;2.57;;
69170;SDS011;56279;47.902;12.308;2023-03-20T03:23:30;6.18;;;2.58;;
69170;SDS011;56279;47.902;12.308;2023-03-20T03:25:47;4.05;;;2.25;;
69170;SDS011;56279;47.902;12.308;2023-03-20T03:28:07;4.70;;;2.50;;
69170;SDS011;56279;47.902;12.308;2023-03-20T03:32:34;3.63;;;2.20;;
69170;SDS011;56279;47.902;12.308;2023-03-20T03:34:41;6.28;;;2.58;;
69170;SDS011;56279;47.902;12.308;2023-03-20T03:43:30;4.60;;;2.50;;
69170;SDS011;56279;47.902;12.308;2023-03-20T03:45:39;4.28;;;2.40;;
69170;SDS011;56279;47.902;12.308;2023-03-20T03:48:35;4.95;;;2.60;;
69170;SDS011;56279;47.902;12.308;2023-03-20T03:50:24;3.92;;;2.30;;
69170;SDS011;56279;47.902;12.308;2023-03-20T03:52:35;5.05;;;2.65;;
69170;SDS011;56279;47.902;12.308;2023-03-20T03:54:42;3.93;;;2.20;;
69170;SDS011;56279;47.902;12.308;2023-03-20T03:57:06;4.15;;;2.22;;
69170;SDS011;56279;47.902;12.308;2023-03-20T03:59:12;4.45;;;2.55;;
69170;SDS011;56279;47.902;12.308;2023-03-20T04:01:20;4.47;;;2.05;;
69170;SDS011;56279;47.902;12.308;2023-03-20T04:03:27;7.05;;;2.30;;
69170;SDS011;56279;47.902;12.308;2023-03-20T04:05:32;8.00;;;2.77;;
69170;SDS011;56279;47.902;12.308;2023-03-20T04:07:37;3.92;;;2.33;;
69170;SDS011;56279;47.902;12.308;2023-03-20T04:09:39;4.05;;;2.40;;
69170;SDS011;56279;47.902;12.308;2023-03-20T04:11:40;4.22;;;2.40;;
69170;SDS011;56279;47.902;12.308;2023-03-20T04:13:43;4.60;;;2.50;;
69170;SDS011;56279;47.902;12.308;2023-03-20T04:15:48;5.63;;;2.57;;
69170;SDS011;56279;47.902;12.308;2023-03-20T04:17:50;5.63;;;2.75;;
69170;SDS011;56279;47.902;12.308;2023-03-20T04:19:52;5.45;;;2.70;;
69170;SDS011;56279;47.902;12.308;2023-03-20T04:21:53;4.20;;;2.38;;
69170;SDS011;56279;47.902;12.308;2023-03-20T04:23:55;4.35;;;2.58;;
69170;SDS011;56279;47.902;12.308;2023-03-20T04:25:58;4.70;;;2.57;;
69170;SDS011;56279;47.902;12.308;2023-03-20T04:28:03;3.72;;;2.40;;
69170;SDS011;56279;47.902;12.308;2023-03-20T04:30:18;4.63;;;2.75;;
69170;SDS011;56279;47.902;12.308;2023-03-20T04:32:55;5.13;;;2.60;;
69170;SDS011;56279;47.902;12.308;2023-03-20T04:35:26;5.63;;;2.90;;
69170;SDS011;56279;47.902;12.308;2023-03-20T04:37:32;6.30;;;2.80;;
69170;SDS011;56279;47.902;12.308;2023-03-20T04:39:38;4.93;;;2.50;;
69170;SDS011;56279;47.902;12.308;2023-03-20T04:41:41;4.97;;;2.65;;
69170;SDS011;56279;47.902;12.308;2023-03-20T04:43:43;5.03;;;2.25;;
69170;SDS011;56279;47.902;12.308;2023-03-20T04:45:45;4.28;;;2.40;;
69170;SDS011;56279;47.902;12.308;2023-03-20T04:47:47;3.65;;;2.08;;
69170;SDS011;56279;47.902;12.308;2023-03-20T04:49:54;3.95;;;2.35;;
69170;SDS011;56279;47.902;12.308;2023-03-20T04:51:57;3.72;;;2.10;;
69170;SDS011;56279;47.902;12.308;2023-03-20T04:54:10;4.43;;;2.00;;
69170;SDS011;56279;47.902;12.308;2023-03-20T04:56:11;3.70;;;2.20;;
69170;SDS011;56279;47.902;12.308;2023-03-20T04:58:13;4.53;;;2.17;;
69170;SDS011;56279;47.902;12.308;2023-03-20T05:00:15;4.15;;;2.08;;
69170;SDS011;56279;47.902;12.308;2023-03-20T05:02:18;6.63;;;2.15;;
69170;SDS011;56279;47.902;12.308;2023-03-20T05:04:19;3.95;;;2.20;;
69170;SDS011;56279;47.902;12.308;2023-03-20T05:06:21;4.05;;;2.20;;
69170;SDS011;56279;47.902;12.308;2023-03-20T05:08:23;3.15;;;1.95;;
69170;SDS011;56279;47.902;12.308;2023-03-20T05:10:30;4.07;;;1.90;;
69170;SDS011;56279;47.902;12.308;2023-03-20T05:12:38;3.80;;;2.10;;
69170;SDS011;56279;47.902;12.308;2023-03-20T05:14:58;4.80;;;2.15;;
69170;SDS011;56279;47.902;12.308;2023-03-20T05:17:18;4.38;;;2.10;;
69170;SDS011;56279;47.902;12.308;2023-03-20T05:19:45;5.97;;;2.20;;
69170;SDS011;56279;47.902;12.308;2023-03-20T05:22:13;2.78;;;1.83;;
69170;SDS011;56279;47.902;12.308;2023-03-20T05:24:37;3.90;;;2.20;;
69170;SDS011;56279;47.902;12.308;2023-03-20T05:26:53;5.55;;;2.05;;
69170;SDS011;56279;47.902;12.308;2023-03-20T05:29:06;3.35;;;1.90;;
69170;SDS011;56279;47.902;12.308;2023-03-20T05:31:40;3.35;;;1.92;;
69170;SDS011;56279;47.902;12.308;2023-03-20T05:34:08;4.85;;;2.20;;
69170;SDS011;56279;47.902;12.308;2023-03-20T05:36:32;4.80;;;1.70;;
69170;SDS011;56279;47.902;12.308;2023-03-20T05:38:53;5.25;;;2.13;;
69170;SDS011;56279;47.902;12.308;2023-03-20T05:41:17;4.03;;;2.05;;
69170;SDS011;56279;47.902;12.308;2023-03-20T05:43:41;6.75;;;2.67;;
69170;SDS011;56279;47.902;12.308;2023-03-20T05:46:00;4.68;;;2.00;;
69170;SDS011;56279;47.902;12.308;2023-03-20T05:48:05;5.22;;;2.15;;
69170;SDS011;56279;47.902;12.308;2023-03-20T05:50:15;3.50;;;2.03;;
69170;SDS011;56279;47.902;12.308;2023-03-20T05:52:46;4.35;;;2.00;;
69170;SDS011;56279;47.902;12.308;2023-03-20T05:55:06;4.03;;;1.90;;
69170;SDS011;56279;47.902;12.308;2023-03-20T05:57:40;4.45;;;2.22;;
69170;SDS011;56279;47.902;12.308;2023-03-20T06:00:05;6.78;;;2.50;;
69170;SDS011;56279;47.902;12.308;2023-03-20T06:02:11;5.18;;;2.35;;
69170;SDS011;56279;47.902;12.308;2023-03-20T06:04:15;5.50;;;2.22;;
69170;SDS011;56279;47.902;12.308;2023-03-20T06:06:46;4.30;;;2.50;;
69170;SDS011;56279;47.902;12.308;2023-03-20T06:08:48;6.20;;;2.83;;
69170;SDS011;56279;47.902;12.308;2023-03-20T06:10:50;4.70;;;2.58;;
69170;SDS011;56279;47.902;12.308;2023-03-20T06:12:52;6.57;;;2.65;;
69170;SDS011;56279;47.902;12.308;2023-03-20T06:14:58;5.35;;;2.17;;
69170;SDS011;56279;47.902;12.308;2023-03-20T06:17:00;4.53;;;2.33;;
69170;SDS011;56279;47.902;12.308;2023-03-20T06:19:03;4.43;;;2.38;;
69170;SDS011;56279;47.902;12.308;2023-03-20T06:21:04;3.72;;;2.30;;
69170;SDS011;56279;47.902;12.308;2023-03-20T06:23:31;5.07;;;2.42;;
69170;SDS011;56279;47.902;12.308;2023-03-20T06:25:35;4.80;;;2.75;;
69170;SDS011;56279;47.902;12.308;2023-03-20T06:27:37;5.15;;;2.90;;
69170;SDS011;56279;47.902;12.308;2023-03-20T06:29:39;3.83;;;2.30;;
69170;SDS011;56279;47.902;12.308;2023-03-20T06:31:59;3.70;;;2.20;;
69170;SDS011;56279;47.902;12.308;2023-03-20T06:34:03;3.70;;;2.00;;
69170;SDS011;56279;47.902;12.308;2023-03-20T06:36:10;4.38;;;2.20;;
69170;SDS011;56279;47.902;12.308;2023-03-20T06:38:13;3.47;;;2.10;;
69170;SDS011;56279;47.902;12.308;2023-03-20T06:40:15;5.88;;;2.10;;
69170;SDS011;56279;47.902;12.308;2023-03-20T06:42:16;3.72;;;1.92;;
69170;SDS011;56279;47.902;12.308;2023-03-20T06:44:20;3.53;;;2.00;;
69170;SDS011;56279;47.902;12.308;2023-03-20T06:46:44;4.40;;;2.50;;
69170;SDS011;56279;47.902;12.308;2023-03-20T06:48:45;3.60;;;2.25;;
69170;SDS011;56279;47.902;12.308;2023-03-20T06:50:49;4.43;;;2.15;;
69170;SDS011;56279;47.902;12.308;2023-03-20T06:52:53;4.75;;;2.17;;
69170;SDS011;56279;47.902;12.308;2023-03-20T06:55:15;5.13;;;2.20;;
69170;SDS011;56279;47.902;12.308;2023-03-20T06:57:16;4.55;;;2.83;;
69170;SDS011;56279;47.902;12.308;2023-03-20T06:59:18;3.97;;;2.38;;
69170;SDS011;56279;47.902;12.308;2023-03-20T07:01:20;5.18;;;2.25;;
69170;SDS011;56279;47.902;12.308;2023-03-20T07:03:21;3.70;;;2.33;;
69170;SDS011;56279;47.902;12.308;2023-03-20T07:05:24;4.15;;;2.40;;
69170;SDS011;56279;47.902;12.308;2023-03-20T07:07:26;4.43;;;2.58;;
69170;SDS011;56279;47.902;12.308;2023-03-20T07:09:27;3.80;;;2.30;;
69170;SDS011;56279;47.902;12.308;2023-03-20T07:11:30;5.15;;;2.97;;
69170;SDS011;56279;47.902;12.308;2023-03-20T07:13:32;6.22;;;2.58;;
69170;SDS011;56279;47.902;12.308;2023-03-20T07:15:41;5.38;;;2.65;;
69170;SDS011;56279;47.902;12.308;2023-03-20T07:17:46;4.43;;;2.53;;
69170;SDS011;56279;47.902;12.308;2023-03-20T07:19:48;5.28;;;2.55;;
69170;SDS011;56279;47.902;12.308;2023-03-20T07:21:57;5.35;;;2.63;;
69170;SDS011;56279;47.902;12.308;2023-03-20T07:24:04;3.95;;;2.30;;
69170;SDS011;56279;47.902;12.308;2023-03-20T07:26:08;3.67;;;2.28;;
69170;SDS011;56279;47.902;12.308;2023-03-20T07:28:10;3.20;;;2.10;;
69170;SDS011;56279;47.902;12.308;2023-03-20T07:30:16;3.95;;;2.25;;
69170;SDS011;56279;47.902;12.308;2023-03-20T07:32:18;3.85;;;2.28;;
69170;SDS011;56279;47.902;12.308;2023-03-20T07:34:24;3.60;;;2.13;;
69170;SDS011;56279;47.902;12.308;2023-03-20T07:36:26;4.15;;;1.95;;
69170;SDS011;56279;47.902;12.308;2023-03-20T07:38:27;4.13;;;2.20;;
69170;SDS011;56279;47.902;12.308;2023-03-20T07:40:39;4.63;;;2.10;;
69170;SDS011;56279;47.902;12.308;2023-03-20T07:42:45;3.67;;;2.08;;
69170;SDS011;56279;47.902;12.308;2023-03-20T07:45:10;4.22;;;2.17;;
69170;SDS011;56279;47.902;12.308;2023-03-20T07:47:11;4.05;;;2.28;;
69170;SDS011;56279;47.902;12.308;2023-03-20T07:49:13;5.70;;;2.25;;
69170;SDS011;56279;47.902;12.308;2023-03-20T07:51:14;4.97;;;2.63;;
69170;SDS011;56279;47.902;12.308;2023-03-20T07:53:15;3.15;;;2.00;;
69170;SDS011;56279;47.902;12.308;2023-03-20T07:55:17;4.32;;;2.60;;
69170;SDS011;56279;47.902;12.308;2023-03-20T07:57:19;4.10;;;2.13;;
69170;SDS011;56279;47.902;12.308;2023-03-20T07:59:20;4.63;;;2.20;;
69170;SDS011;56279;47.902;12.308;2023-03-20T08:01:21;4.28;;;2.17;;
69170;SDS011;56279;47.902;12.308;2023-03-20T08:03:23;4.75;;;2.28;;
69170;SDS011;56279;47.902;12.308;2023-03-20T08:05:25;3.65;;;2.00;;
69170;SDS011;56279;47.902;12.308;2023-03-20T08:07:27;4.05;;;2.33;;
69170;SDS011;56279;47.902;12.308;2023-03-20T08:09:31;3.67;;;2.20;;
69170;SDS011;56279;47.902;12.308;2023-03-20T08:11:32;5.57;;;2.10;;
69170;SDS011;56279;47.902;12.308;2023-03-20T08:13:33;3.42;;;1.90;;
69170;SDS011;56279;47.902;12.308;2023-03-20T08:15:35;3.67;;;2.10;;
69170;SDS011;56279;47.902;12.308;2023-03-20T08:17:36;5.15;;;2.20;;
69170;SDS011;56279;47.902;12.308;2023-03-20T08:19:37;3.95;;;2.15;;
69170;SDS011;56279;47.902;12.308;2023-03-20T08:21:38;3.85;;;2.22;;
69170;SDS011;56279;47.902;12.308;2023-03-20T08:23:40;3.67;;;2.10;;
69170;SDS011;56279;47.902;12.308;2023-03-20T08:25:48;4.38;;;2.25;;
69170;SDS011;56279;47.902;12.308;2023-03-20T08:27:51;3.92;;;2.22;;
69170;SDS011;56279;47.902;12.308;2023-03-20T08:29:53;3.90;;;2.25;;
69170;SDS011;56279;47.902;12.308;2023-03-20T08:31:54;5.18;;;2.40;;
69170;SDS011;56279;47.902;12.308;2023-03-20T08:33:57;4.47;;;2.40;;
69170;SDS011;56279;47.902;12.308;2023-03-20T08:35:59;4.97;;;2.38;;
69170;SDS011;56279;47.902;12.308;2023-03-20T08:38:00;5.22;;;2.20;;
69170;SDS011;56279;47.902;12.308;2023-03-20T08:40:02;3.83;;;2.28;;
69170;SDS011;56279;47.902;12.308;2023-03-20T08:42:04;5.07;;;2.22;;
69170;SDS011;56279;47.902;12.308;2023-03-20T08:44:06;8.48;;;3.10;;
69170;SDS011;56279;47.902;12.308;2023-03-20T08:46:08;5.63;;;2.92;;
69170;SDS011;56279;47.902;12.308;2023-03-20T08:48:09;4.00;;;2.15;;
69170;SDS011;56279;47.902;12.308;2023-03-20T08:50:12;4.05;;;2.20;;
69170;SDS011;56279;47.902;12.308;2023-03-20T08:52:13;5.90;;;2.53;;
69170;SDS011;56279;47.902;12.308;2023-03-20T08:54:15;5.72;;;2.15;;
69170;SDS011;56279;47.902;12.308;2023-03-20T08:56:18;4.03;;;2.25;;
69170;SDS011;56279;47.902;12.308;2023-03-20T08:58:19;4.38;;;2.25;;
69170;SDS011;56279;47.902;12.308;2023-03-20T09:00:21;5.93;;;2.40;;
69170;SDS011;56279;47.902;12.308;2023-03-20T09:02:23;8.50;;;2.30;;
69170;SDS011;56279;47.902;12.308;2023-03-20T09:04:25;4.22;;;2.38;;
69170;SDS011;56279;47.902;12.308;2023-03-20T09:06:27;4.90;;;2.42;;
69170;SDS011;56279;47.902;12.308;2023-03-20T09:08:29;4.55;;;2.30;;
69170;SDS011;56279;47.902;12.308;2023-03-20T09:10:30;5.25;;;2.72;;
69170;SDS011;56279;47.902;12.308;2023-03-20T09:12:31;6.53;;;2.60;;
69170;SDS011;56279;47.902;12.308;2023-03-20T09:14:32;5.80;;;2.63;;
69170;SDS011;56279;47.902;12.308;2023-03-20T09:16:34;4.90;;;2.70;;
69170;SDS011;56279;47.902;12.308;2023-03-20T09:18:35;6.53;;;3.35;;
69170;SDS011;56279;47.902;12.308;2023-03-20T09:20:36;6.15;;;2.95;;
69170;SDS011;56279;47.902;12.308;2023-03-20T09:22:38;10.23;;;3.67;;
69170;SDS011;56279;47.902;12.308;2023-03-20T09:24:41;5.00;;;2.92;;
69170;SDS011;56279;47.902;12.308;2023-03-20T09:26:42;5.40;;;3.05;;
69170;SDS011;56279;47.902;12.308;2023-03-20T09:28:43;5.60;;;3.10;;
69170;SDS011;56279;47.902;12.308;2023-03-20T09:30:45;5.25;;;3.30;;
69170;SDS011;56279;47.902;12.308;2023-03-20T09:32:46;5.23;;;2.93;;
69170;SDS011;56279;47.902;12.308;2023-03-20T09:34:48;4.88;;;2.80;;
69170;SDS011;56279;47.902;12.308;2023-03-20T09:36:49;5.35;;;2.92;;
69170;SDS011;56279;47.902;12.308;2023-03-20T09:38:51;7.57;;;3.28;;
69170;SDS011;56279;47.902;12.308;2023-03-20T09:40:53;5.65;;;2.97;;
69170;SDS011;56279;47.902;12.308;2023-03-20T09:50:17;4.90;;;2.65;;
69170;SDS011;56279;47.902;12.308;2023-03-20T09:52:35;6.25;;;3.20;;
69170;SDS011;56279;47.902;12.308;2023-03-20T09:54:42;6.20;;;3.00;;
69170;SDS011;56279;47.902;12.308;2023-03-20T09:56:45;6.53;;;3.00;;
69170;SDS011;56279;47.902;12.308;2023-03-20T09:58:56;5.43;;;2.45;;
69170;SDS011;56279;47.902;12.308;2023-03-20T10:01:00;4.72;;;2.92;;
69170;SDS011;56279;47.902;12.308;2023-03-20T10:03:06;5.63;;;2.80;;
69170;SDS011;56279;47.902;12.308;2023-03-20T10:07:47;6.43;;;2.72;;
69170;SDS011;56279;47.902;12.308;2023-03-20T10:09:48;4.05;;;2.25;;
69170;SDS011;56279;47.902;12.308;2023-03-20T10:16:59;4.60;;;2.50;;
69170;SDS011;56279;47.902;12.308;2023-03-20T10:19:28;4.32;;;2.28;;
69170;SDS011;56279;47.902;12.308;2023-03-20T10:22:00;3.92;;;2.15;;
69170;SDS011;56279;47.902;12.308;2023-03-20T10:24:16;3.92;;;2.25;;
69170;SDS011;56279;47.902;12.308;2023-03-20T10:26:30;4.38;;;2.28;;
69170;SDS011;56279;47.902;12.308;2023-03-20T10:28:35;4.87;;;2.27;;
69170;SDS011;56279;47.902;12.308;2023-03-20T10:33:46;4.40;;;2.40;;
69170;SDS011;56279;47.902;12.308;2023-03-20T10:36:39;6.28;;;2.05;;
69170;SDS011;56279;47.902;12.308;2023-03-20T10:38:54;4.40;;;2.40;;
69170;SDS011;56279;47.902;12.308;2023-03-20T10:41:10;3.63;;;2.17;;
69170;SDS011;56279;47.902;12.308;2023-03-20T10:43:23;4.38;;;2.30;;
69170;SDS011;56279;47.902;12.308;2023-03-20T10:47:52;3.17;;;2.10;;
69170;SDS011;56279;47.902;12.308;2023-03-20T10:49:57;5.32;;;2.40;;
69170;SDS011;56279;47.902;12.308;2023-03-20T10:52:14;4.27;;;2.30;;
69170;SDS011;56279;47.902;12.308;2023-03-20T10:54:35;4.95;;;2.30;;
69170;SDS011;56279;47.902;12.308;2023-03-20T10:56:41;5.57;;;2.13;;
69170;SDS011;56279;47.902;12.308;2023-03-20T10:58:49;3.47;;;2.03;;
69170;SDS011;56279;47.902;12.308;2023-03-20T11:00:59;5.55;;;2.05;;
69170;SDS011;56279;47.902;12.308;2023-03-20T11:03:00;4.23;;;2.27;;
69170;SDS011;56279;47.902;12.308;2023-03-20T11:05:09;5.47;;;2.00;;
69170;SDS011;56279;47.902;12.308;2023-03-20T11:07:36;4.45;;;2.28;;
69170;SDS011;56279;47.902;12.308;2023-03-20T11:09:38;4.18;;;2.13;;
69170;SDS011;56279;47.902;12.308;2023-03-20T11:11:39;4.72;;;2.22;;
69170;SDS011;56279;47.902;12.308;2023-03-20T11:13:44;4.40;;;1.80;;
69170;SDS011;56279;47.902;12.308;2023-03-20T11:15:45;2.88;;;1.73;;
69170;SDS011;56279;47.902;12.308;2023-03-20T11:17:53;3.05;;;1.90;;
69170;SDS011;56279;47.902;12.308;2023-03-20T11:20:01;2.67;;;1.60;;
69170;SDS011;56279;47.902;12.308;2023-03-20T11:22:25;2.92;;;1.80;;
69170;SDS011;56279;47.902;12.308;2023-03-20T11:27:23;2.65;;;1.60;;
69170;SDS011;56279;47.902;12.308;2023-03-20T11:29:30;2.60;;;1.90;;
69170;SDS011;56279;47.902;12.308;2023-03-20T11:31:36;2.60;;;1.45;;
69170;SDS011;56279;47.902;12.308;2023-03-20T11:33:44;3.33;;;1.58;;
69170;SDS011;56279;47.902;12.308;2023-03-20T11:35:51;2.90;;;1.77;;
69170;SDS011;56279;47.902;12.308;2023-03-20T11:38:02;4.10;;;1.73;;
69170;SDS011;56279;47.902;12.308;2023-03-20T11:40:21;3.75;;;1.90;;
69170;SDS011;56279;47.902;12.308;2023-03-20T11:42:33;2.90;;;1.80;;
69170;SDS011;56279;47.902;12.308;2023-03-20T11:44:36;2.92;;;1.90;;
69170;SDS011;56279;47.902;12.308;2023-03-20T11:46:38;3.03;;;1.80;;
69170;SDS011;56279;47.902;12.308;2023-03-20T11:48:40;3.72;;;1.95;;
69170;SDS011;56279;47.902;12.308;2023-03-20T11:50:46;3.85;;;1.77;;
69170;SDS011;56279;47.902;12.308;2023-03-20T11:53:16;3.28;;;1.95;;
69170;SDS011;56279;47.902;12.308;2023-03-20T11:55:28;3.40;;;1.73;;
69170;SDS011;56279;47.902;12.308;2023-03-20T11:57:36;3.23;;;1.80;;
69170;SDS011;56279;47.902;12.308;2023-03-20T11:59:40;2.60;;;1.73;;
69170;SDS011;56279;47.902;12.308;2023-03-20T12:01:52;4.10;;;1.60;;
69170;SDS011;56279;47.902;12.308;2023-03-20T12:06:00;3.92;;;2.10;;
69170;SDS011;56279;47.902;12.308;2023-03-20T12:08:11;2.77;;;1.63;;
69170;SDS011;56279;47.902;12.308;2023-03-20T12:10:19;2.63;;;1.80;;
69170;SDS011;56279;47.902;12.308;2023-03-20T12:15:37;3.38;;;1.85;;
69170;SDS011;56279;47.902;12.308;2023-03-20T12:17:29;3.80;;;1.92;;
69170;SDS011;56279;47.902;12.308;2023-03-20T12:19:38;3.77;;;2.03;;
69170;SDS011;56279;47.902;12.308;2023-03-20T12:21:43;3.33;;;1.90;;
69170;SDS011;56279;47.902;12.308;2023-03-20T12:23:59;3.30;;;1.90;;
69170;SDS011;56279;47.902;12.308;2023-03-20T12:26:02;3.40;;;1.90;;
69170;SDS011;56279;47.902;12.308;2023-03-20T12:28:11;3.38;;;1.92;;
69170;SDS011;56279;47.902;12.308;2023-03-20T12:34:58;4.05;;;1.98;;
69170;SDS011;56279;47.902;12.308;2023-03-20T12:37:11;2.85;;;1.83;;
69170;SDS011;56279;47.902;12.308;2023-03-20T12:39:16;4.95;;;2.10;;
69170;SDS011;56279;47.902;12.308;2023-03-20T12:41:32;3.83;;;1.70;;
69170;SDS011;56279;47.902;12.308;2023-03-20T12:50:38;4.47;;;1.90;;
69170;SDS011;56279;47.902;12.308;2023-03-20T12:52:54;4.27;;;1.73;;
69170;SDS011;56279;47.902;12.308;2023-03-20T13:00:23;8.45;;;2.00;;
69170;SDS011;56279;47.902;12.308;2023-03-20T13:02:43;3.67;;;2.00;;
69170;SDS011;56279;47.902;12.308;2023-03-20T13:09:51;4.20;;;1.70;;
69170;SDS011;56279;47.902;12.308;2023-03-20T13:12:34;2.33;;;1.60;;
69170;SDS011;56279;47.902;12.308;2023-03-20T13:21:26;3.60;;;1.70;;
69170;SDS011;56279;47.902;12.308;2023-03-20T13:23:44;7.75;;;1.95;;
69170;SDS011;56279;47.902;12.308;2023-03-20T13:30:56;3.28;;;1.70;;
69170;SDS011;56279;47.902;12.308;2023-03-20T13:33:17;2.78;;;1.40;;
69170;SDS011;56279;47.902;12.308;2023-03-20T13:38:22;2.97;;;1.65;;
69170;SDS011;56279;47.902;12.308;2023-03-20T13:40:31;3.80;;;1.60;;
69170;SDS011;56279;47.902;12.308;2023-03-20T13:42:58;3.08;;;1.42;;
69170;SDS011;56279;47.902;12.308;2023-03-20T13:45:05;3.40;;;1.20;;
69170;SDS011;56279;47.902;12.308;2023-03-20T13:47:34;2.28;;;1.40;;
69170;SDS011;56279;47.902;12.308;2023-03-20T13:49:38;2.20;;;1.40;;
69170;SDS011;56279;47.902;12.308;2023-03-20T13:51:50;2.00;;;1.40;;
69170;SDS011;56279;47.902;12.308;2023-03-20T13:54:13;6.40;;;1.90;;
69170;SDS011;56279;47.902;12.308;2023-03-20T13:56:41;2.08;;;1.58;;
69170;SDS011;56279;47.902;12.308;2023-03-20T14:03:55;2.87;;;1.40;;
69170;SDS011;56279;47.902;12.308;2023-03-20T14:05:58;3.03;;;1.45;;
69170;SDS011;56279;47.902;12.308;2023-03-20T14:07:59;3.80;;;1.55;;
69170;SDS011;56279;47.902;12.308;2023-03-20T14:10:38;3.22;;;1.40;;
69170;SDS011;56279;47.902;12.308;2023-03-20T14:12:39;2.17;;;1.55;;
69170;SDS011;56279;47.902;12.308;2023-03-20T14:17:20;2.55;;;1.50;;
69170;SDS011;56279;47.902;12.308;2023-03-20T14:19:23;2.85;;;1.38;;
69170;SDS011;56279;47.902;12.308;2023-03-20T14:21:25;3.53;;;1.60;;
69170;SDS011;56279;47.902;12.308;2023-03-20T14:25:35;2.40;;;1.60;;
69170;SDS011;56279;47.902;12.308;2023-03-20T14:32:31;5.82;;;1.92;;
69170;SDS011;56279;47.902;12.308;2023-03-20T14:34:47;4.35;;;1.90;;